Time;durP1;ratioP1;P1;durP2;ratioP2;P2;SDS_P1;SDS_P2;PMS_P1;PMS_P2;Temp;Humidity;BMP_temperature;BMP_pressure;BME280_temperature;BME280_humidity;BME280_pressure;Samples;Min_cycle;Max_cycle;Signal;HPM_P1;HPM_P2
2023/03/03 00:00:49;;;;;;;13.18;9.20;;;10.50;77.40;;;;;;5034195;28;20044;-78
2023/03/03 00:03:18;;;;;;;11.77;8.55;;;10.50;77.50;;;;;;5018103;28;20032;-77
2023/03/03 00:05:44;;;;;;;13.00;9.32;;;10.50;77.40;;;;;;5016811;28;20025;-77
2023/03/03 00:08:10;;;;;;;13.27;9.35;;;10.50;77.50;;;;;;5037737;28;20025;-78
2023/03/03 00:10:36;;;;;;;12.07;8.20;;;10.50;77.40;;;;;;5038433;28;20030;-79
2023/03/03 00:13:02;;;;;;;12.88;8.88;;;10.50;77.50;;;;;;5037825;28;20033;-78
2023/03/03 00:15:29;;;;;;;12.60;9.07;;;10.50;77.50;;;;;;5021799;28;20052;-80
2023/03/03 00:17:55;;;;;;;13.13;8.95;;;10.50;77.50;;;;;;5021826;28;20044;-79
2023/03/03 00:20:36;;;;;;;12.35;8.45;;;10.50;77.50;;;;;;5021674;28;20029;-79
2023/03/03 00:23:27;;;;;;;12.10;8.63;;;10.50;77.50;;;;;;5038849;28;20439;-79
2023/03/03 00:25:52;;;;;;;12.80;9.00;;;10.50;77.50;;;;;;5033177;28;20026;-78
2023/03/03 00:28:28;;;;;;;12.23;8.63;;;10.50;77.50;;;;;;5037828;28;20040;-78
2023/03/03 00:30:56;;;;;;;12.52;8.73;;;10.50;77.50;;;;;;5019687;28;20518;-79
2023/03/03 00:33:27;;;;;;;11.65;8.45;;;10.40;77.50;;;;;;5037725;28;20499;-79
2023/03/03 00:35:53;;;;;;;12.60;8.55;;;10.50;77.60;;;;;;5035913;28;20032;-79
2023/03/03 00:38:19;;;;;;;12.00;8.48;;;10.50;77.60;;;;;;5036714;28;20029;-78
2023/03/03 00:40:46;;;;;;;11.70;8.13;;;10.50;77.50;;;;;;5019764;28;20029;-79
2023/03/03 00:43:16;;;;;;;11.23;8.15;;;10.50;77.50;;;;;;5037377;28;20095;-78
2023/03/03 00:45:44;;;;;;;11.38;7.82;;;10.50;77.50;;;;;;5018882;28;20116;-78
2023/03/03 00:48:24;;;;;;;12.48;8.57;;;10.50;77.50;;;;;;5036693;28;20032;-78
2023/03/03 00:50:57;;;;;;;11.45;7.72;;;10.50;77.50;;;;;;5033544;28;20014;-79
2023/03/03 00:53:25;;;;;;;12.52;8.48;;;10.50;77.60;;;;;;5035679;28;20091;-78
2023/03/03 00:55:52;;;;;;;11.85;8.20;;;10.50;77.60;;;;;;5034764;28;20025;-77
2023/03/03 00:58:20;;;;;;;11.50;8.10;;;10.50;77.60;;;;;;5035796;28;20112;-79
2023/03/03 01:00:50;;;;;;;12.50;8.65;;;10.50;77.60;;;;;;5039988;28;20029;-79
2023/03/03 01:03:20;;;;;;;11.30;8.00;;;10.50;77.60;;;;;;5037794;28;20108;-78
2023/03/03 01:05:46;;;;;;;12.10;8.55;;;10.50;77.60;;;;;;5035780;28;20076;-78
2023/03/03 01:08:12;;;;;;;11.95;8.15;;;10.40;77.60;;;;;;5037962;28;20025;-79
2023/03/03 01:10:50;;;;;;;11.50;8.00;;;10.40;77.50;;;;;;5036268;28;20369;-78
2023/03/03 01:13:17;;;;;;;12.63;8.95;;;10.50;77.60;;;;;;5036828;28;20476;-78
2023/03/03 01:15:43;;;;;;;11.57;7.97;;;10.50;77.60;;;;;;5035884;28;20026;-78
2023/03/03 01:18:10;;;;;;;12.65;8.13;;;10.50;77.60;;;;;;5036480;28;20033;-78
2023/03/03 01:20:36;;;;;;;10.70;7.78;;;10.40;77.60;;;;;;5036640;28;20475;-79
2023/03/03 01:23:01;;;;;;;11.50;8.40;;;10.50;77.70;;;;;;5019450;28;20037;-79
2023/03/03 01:25:27;;;;;;;11.45;8.00;;;10.50;77.60;;;;;;5036938;28;20545;-79
2023/03/03 01:27:53;;;;;;;11.90;8.57;;;10.40;77.60;;;;;;5035909;28;20029;-79
2023/03/03 01:30:19;;;;;;;12.15;8.13;;;10.50;77.70;;;;;;5035601;28;20116;-79
2023/03/03 01:32:44;;;;;;;11.63;8.13;;;10.50;77.60;;;;;;5036949;28;20029;-78
2023/03/03 01:35:10;;;;;;;11.48;8.18;;;10.40;77.60;;;;;;5036370;28;20431;-78
2023/03/03 01:37:35;;;;;;;11.52;8.00;;;10.50;77.70;;;;;;5018732;28;20017;-79
2023/03/03 01:40:02;;;;;;;11.52;8.40;;;10.50;77.70;;;;;;5036646;28;20499;-78
2023/03/03 01:42:28;;;;;;;12.52;8.30;;;10.40;77.60;;;;;;5036347;28;20132;-79
2023/03/03 01:45:20;;;;;;;11.88;7.88;;;10.50;77.70;;;;;;5017206;28;20037;-79
2023/03/03 01:48:05;;;;;;;11.50;8.32;;;10.40;77.60;;;;;;5031884;28;20026;-78
2023/03/03 01:50:36;;;;;;;12.90;8.32;;;10.50;77.60;;;;;;5016749;28;20484;-78
2023/03/03 01:53:05;;;;;;;13.45;9.15;;;10.40;77.60;;;;;;5033654;28;20438;-79
2023/03/03 01:55:35;;;;;;;12.00;7.97;;;10.50;77.60;;;;;;5032936;28;20036;-79
2023/03/03 01:58:09;;;;;;;12.27;8.30;;;10.50;77.60;;;;;;5033120;28;20104;-78
2023/03/03 02:00:37;;;;;;;11.85;8.40;;;10.40;77.60;;;;;;5032483;28;20411;-78
2023/03/03 02:03:04;;;;;;;11.55;8.23;;;10.50;77.70;;;;;;5031322;28;20037;-78
2023/03/03 02:05:29;;;;;;;11.80;8.23;;;10.40;77.60;;;;;;5014102;28;20025;-78
2023/03/03 02:07:55;;;;;;;13.15;8.63;;;10.40;77.60;;;;;;5032689;28;20096;-78
2023/03/03 02:10:21;;;;;;;12.85;8.68;;;10.40;77.60;;;;;;5032391;28;20109;-77
2023/03/03 02:12:56;;;;;;;12.88;8.85;;;10.40;77.50;;;;;;5030644;28;20506;-77
2023/03/03 02:15:25;;;;;;;13.32;8.70;;;10.40;77.50;;;;;;5033663;28;20089;-79
2023/03/03 02:18:15;;;;;;;12.23;8.00;;;10.40;77.60;;;;;;5032917;28;20025;-78
2023/03/03 02:21:03;;;;;;;13.27;9.20;;;10.40;77.70;;;;;;5007075;28;20064;-79
2023/03/03 02:23:35;;;;;;;13.55;9.10;;;10.40;77.60;;;;;;5034096;28;20026;-79
2023/03/03 02:26:12;;;;;;;13.18;8.90;;;10.40;77.70;;;;;;5055280;23;20017;-81
2023/03/03 02:28:38;;;;;;;12.40;8.30;;;10.40;77.60;;;;;;4955948;28;20216;-82
2023/03/03 02:31:09;;;;;;;12.60;8.50;;;10.40;77.60;;;;;;4956088;28;20027;-82
2023/03/03 02:33:35;;;;;;;13.07;8.53;;;10.40;77.70;;;;;;4955795;28;20034;-82
2023/03/03 02:36:00;;;;;;;13.02;8.63;;;10.40;77.70;;;;;;4955264;28;20022;-80
2023/03/03 02:38:44;;;;;;;12.32;8.82;;;10.40;77.70;;;;;;4972814;28;20059;-80
2023/03/03 02:41:29;;;;;;;13.02;8.15;;;10.40;77.60;;;;;;4956000;28;20453;-80
2023/03/03 02:44:16;;;;;;;14.40;9.38;;;10.40;77.60;;;;;;4955710;28;20047;-82
2023/03/03 02:46:44;;;;;;;14.05;8.77;;;10.40;77.70;;;;;;4972944;28;20026;-80
2023/03/03 02:49:12;;;;;;;13.80;8.93;;;10.40;77.70;;;;;;4973590;28;20030;-80
2023/03/03 02:51:38;;;;;;;13.00;8.73;;;10.40;77.70;;;;;;4973907;28;20027;-79
2023/03/03 02:54:04;;;;;;;13.35;9.18;;;10.40;77.60;;;;;;4956149;28;20027;-80
2023/03/03 02:56:30;;;;;;;13.55;8.32;;;10.40;77.70;;;;;;4956278;28;20030;-80
2023/03/03 02:58:56;;;;;;;12.77;8.60;;;10.40;77.70;;;;;;4956246;28;20023;-80
2023/03/03 03:01:21;;;;;;;13.48;8.80;;;10.40;77.70;;;;;;4956222;28;20564;-80
2023/03/03 03:03:47;;;;;;;13.63;9.07;;;10.40;77.70;;;;;;4956120;28;20019;-81
2023/03/03 03:06:13;;;;;;;14.40;9.40;;;10.40;77.70;;;;;;4956122;28;20085;-80
2023/03/03 03:08:39;;;;;;;12.88;8.73;;;10.40;77.70;;;;;;4956134;28;20027;-80
2023/03/03 03:11:04;;;;;;;13.02;8.45;;;10.40;77.70;;;;;;4973488;28;20027;-80
2023/03/03 03:13:31;;;;;;;14.50;9.77;;;10.30;77.60;;;;;;4956095;28;20430;-83
2023/03/03 03:15:57;;;;;;;13.75;8.98;;;10.40;77.80;;;;;;4958603;28;20412;-81
2023/03/03 03:18:22;;;;;;;13.63;8.73;;;10.40;77.90;;;;;;4976067;28;20041;-82
2023/03/03 03:20:48;;;;;;;13.63;8.90;;;10.40;77.70;;;;;;4959205;28;20126;-81
2023/03/03 03:23:14;;;;;;;12.60;8.50;;;10.40;77.70;;;;;;4976184;28;20098;-81
2023/03/03 03:25:44;;;;;;;13.18;8.57;;;10.30;77.60;;;;;;4976113;28;20037;-80
2023/03/03 03:28:11;;;;;;;13.93;9.05;;;10.40;77.70;;;;;;4958475;28;20030;-81
2023/03/03 03:30:37;;;;;;;13.68;8.65;;;10.40;77.80;;;;;;4954521;28;20087;-80
2023/03/03 03:33:03;;;;;;;14.32;9.60;;;10.40;77.80;;;;;;4958291;28;20058;-80
2023/03/03 03:35:28;;;;;;;13.88;9.15;;;10.40;77.80;;;;;;4957959;28;20050;-80
2023/03/03 03:37:54;;;;;;;13.13;8.75;;;10.30;77.90;;;;;;4959031;28;20027;-80
2023/03/03 03:40:19;;;;;;;14.23;9.35;;;10.40;77.80;;;;;;4959276;28;20034;-80
2023/03/03 03:42:45;;;;;;;13.98;8.98;;;10.40;77.80;;;;;;4959408;28;20083;-80
2023/03/03 03:45:14;;;;;;;13.60;8.63;;;10.40;77.80;;;;;;4958807;28;20113;-80
2023/03/03 03:47:40;;;;;;;14.55;9.48;;;10.40;77.80;;;;;;4958916;28;20113;-80
2023/03/03 03:50:06;;;;;;;14.00;9.13;;;10.40;77.90;;;;;;4958931;28;20035;-80
2023/03/03 03:52:31;;;;;;;14.98;9.45;;;10.40;77.80;;;;;;4958995;28;20031;-80
2023/03/03 03:54:56;;;;;;;14.32;9.57;;;10.30;77.70;;;;;;4958698;28;20027;-80
2023/03/03 03:57:22;;;;;;;12.60;8.60;;;10.40;77.80;;;;;;4958979;28;20019;-80
2023/03/03 03:59:49;;;;;;;15.77;9.98;;;10.30;77.70;;;;;;4958886;28;20058;-82
2023/03/03 04:02:14;;;;;;;14.40;8.93;;;10.30;77.80;;;;;;4959085;28;20027;-81
2023/03/03 04:04:40;;;;;;;14.23;9.32;;;10.40;77.80;;;;;;4958658;28;20026;-80
2023/03/03 04:07:05;;;;;;;13.45;8.57;;;10.30;77.80;;;;;;4958712;28;20023;-82
2023/03/03 04:09:31;;;;;;;14.60;9.35;;;10.30;77.80;;;;;;4958586;28;20027;-80
2023/03/03 04:11:56;;;;;;;13.25;8.48;;;10.40;77.90;;;;;;4976402;28;20026;-80
2023/03/03 04:14:22;;;;;;;14.30;9.18;;;10.40;77.90;;;;;;4976023;28;20077;-78
2023/03/03 04:16:47;;;;;;;13.55;8.70;;;10.40;77.90;;;;;;4958522;28;20462;-80
2023/03/03 04:19:13;;;;;;;14.98;9.65;;;10.30;77.90;;;;;;4958878;28;20030;-81
2023/03/03 04:21:38;;;;;;;13.30;8.73;;;10.30;77.80;;;;;;4958430;28;20031;-80
2023/03/03 04:24:04;;;;;;;14.25;9.38;;;10.30;77.80;;;;;;4958342;28;20114;-80
2023/03/03 04:26:30;;;;;;;14.98;9.15;;;10.30;77.90;;;;;;4957280;28;20043;-80
2023/03/03 04:28:56;;;;;;;13.60;8.63;;;10.30;77.80;;;;;;4956503;28;20525;-82
2023/03/03 04:31:22;;;;;;;15.27;9.05;;;10.40;77.90;;;;;;4975761;28;20050;-80
2023/03/03 04:33:47;;;;;;;15.57;9.73;;;10.30;77.80;;;;;;4977165;28;20378;-82
2023/03/03 04:36:13;;;;;;;15.15;9.10;;;10.30;77.90;;;;;;4954229;28;20111;-80
2023/03/03 04:38:39;;;;;;;14.65;9.40;;;10.30;77.90;;;;;;4975713;28;20037;-82
2023/03/03 04:41:04;;;;;;;14.82;8.82;;;10.40;77.90;;;;;;4976712;28;20037;-82
2023/03/03 04:43:29;;;;;;;14.48;9.32;;;10.30;77.80;;;;;;4959150;28;20469;-81
2023/03/03 04:45:55;;;;;;;14.82;9.68;;;10.30;77.80;;;;;;4958951;28;20027;-82
2023/03/03 04:48:20;;;;;;;14.77;8.95;;;10.30;78.40;;;;;;4976486;28;20050;-78
2023/03/03 04:50:46;;;;;;;15.65;9.73;;;10.30;77.80;;;;;;4959109;28;20146;-80
2023/03/03 04:53:11;;;;;;;15.93;9.40;;;10.30;77.80;;;;;;4976678;28;20094;-81
2023/03/03 04:55:37;;;;;;;14.38;8.57;;;10.30;77.90;;;;;;4958891;28;20117;-82
2023/03/03 04:58:03;;;;;;;14.85;8.80;;;10.30;77.90;;;;;;4958401;28;20026;-80
2023/03/03 05:00:29;;;;;;;14.27;9.00;;;10.30;77.90;;;;;;4958722;28;20034;-81
2023/03/03 05:02:55;;;;;;;14.43;9.20;;;10.30;77.80;;;;;;4975862;28;20035;-82
2023/03/03 05:05:20;;;;;;;14.50;8.88;;;10.30;77.90;;;;;;4958348;28;20493;-79
2023/03/03 05:07:45;;;;;;;13.65;8.25;;;10.30;77.90;;;;;;4975900;28;20058;-82
2023/03/03 05:10:11;;;;;;;13.75;8.57;;;10.30;77.90;;;;;;4958552;28;20474;-80
2023/03/03 05:12:37;;;;;;;15.95;9.63;;;10.30;77.80;;;;;;4975887;28;20039;-82
2023/03/03 05:15:03;;;;;;;15.07;9.25;;;10.30;77.80;;;;;;4958465;28;20038;-81
2023/03/03 05:17:28;;;;;;;15.18;9.30;;;10.30;77.70;;;;;;4975119;28;20050;-82
2023/03/03 05:19:56;;;;;;;16.05;9.50;;;10.30;77.60;;;;;;4974199;28;20059;-81
2023/03/03 05:22:21;;;;;;;16.10;9.73;;;10.30;77.50;;;;;;4975278;28;20031;-82
2023/03/03 05:24:48;;;;;;;17.85;9.75;;;10.30;77.50;;;;;;4957327;28;20034;-81
2023/03/03 05:27:14;;;;;;;15.98;9.50;;;10.30;77.40;;;;;;4958220;28;20541;-81
2023/03/03 05:29:40;;;;;;;15.18;9.38;;;10.30;77.40;;;;;;4974048;28;20118;-82
2023/03/03 05:32:05;;;;;;;16.20;9.48;;;10.30;77.50;;;;;;4958054;28;20065;-82
2023/03/03 05:34:31;;;;;;;15.52;9.50;;;10.30;77.40;;;;;;4957880;28;20038;-81
2023/03/03 05:36:56;;;;;;;13.20;8.27;;;10.30;77.40;;;;;;4974504;28;20023;-82
2023/03/03 05:39:22;;;;;;;16.25;9.68;;;10.30;77.90;;;;;;4956113;28;20042;-78
2023/03/03 05:41:49;;;;;;;16.60;9.82;;;10.30;77.40;;;;;;4973029;28;20030;-81
2023/03/03 05:44:17;;;;;;;15.48;9.45;;;10.30;77.40;;;;;;4974012;28;20107;-80
2023/03/03 05:46:43;;;;;;;14.57;8.95;;;10.30;77.50;;;;;;4957510;28;20114;-82
2023/03/03 05:49:08;;;;;;;16.13;9.40;;;10.30;77.90;;;;;;4973770;28;20098;-80
2023/03/03 05:51:34;;;;;;;16.05;9.70;;;10.30;77.50;;;;;;4957996;28;20407;-82
2023/03/03 05:53:59;;;;;;;17.42;10.23;;;10.30;77.50;;;;;;4957309;28;20034;-81
2023/03/03 05:56:25;;;;;;;16.63;9.65;;;10.30;77.60;;;;;;4975239;28;20027;-83
2023/03/03 05:58:53;;;;;;;18.10;10.40;;;10.30;77.70;;;;;;4975937;28;20580;-83
2023/03/03 06:01:19;;;;;;;16.40;10.13;;;10.30;77.70;;;;;;4958618;28;20577;-83
2023/03/03 06:03:47;;;;;;;16.05;9.65;;;10.30;77.70;;;;;;4958187;28;20065;-86
2023/03/03 06:06:15;;;;;;;15.15;9.07;;;10.30;77.80;;;;;;4958300;28;20030;-81
2023/03/03 06:08:41;;;;;;;17.77;10.35;;;10.30;77.80;;;;;;4958108;28;20082;-83
2023/03/03 06:11:06;;;;;;;16.63;9.63;;;10.30;77.70;;;;;;4958292;28;20054;-84
2023/03/03 06:13:32;;;;;;;15.50;9.02;;;10.20;78.20;;;;;;4976334;28;20099;-84
2023/03/03 06:15:57;;;;;;;16.80;9.70;;;10.30;77.70;;;;;;4956788;28;20449;-83
2023/03/03 06:18:23;;;;;;;16.23;9.48;;;10.30;77.80;;;;;;4959071;28;20030;-83
2023/03/03 06:20:52;;;;;;;15.40;8.80;;;10.30;77.80;;;;;;4959233;28;20039;-83
2023/03/03 06:23:18;;;;;;;16.67;9.80;;;10.30;77.80;;;;;;4975440;28;20027;-84
2023/03/03 06:25:43;;;;;;;16.40;9.32;;;10.30;77.90;;;;;;4975337;28;20034;-84
2023/03/03 06:56:59;;;;;;;18.23;10.75;;;10.20;76.40;;;;;;4984557;28;20049;-81
2023/03/03 06:59:27;;;;;;;17.80;10.07;;;10.30;76.60;;;;;;4984082;28;20027;-82
2023/03/03 07:01:53;;;;;;;19.58;11.18;;;10.20;76.70;;;;;;5000422;28;20038;-82
2023/03/03 07:05:25;;;;;;;19.70;11.27;;;10.20;76.80;;;;;;4999641;28;20049;-82
2023/03/03 07:07:53;;;;;;;19.70;10.73;;;10.20;76.90;;;;;;5001154;28;20018;-80
2023/03/03 07:10:38;;;;;;;20.08;11.85;;;10.30;76.90;;;;;;4980113;28;20023;-81
2023/03/03 07:13:37;;;;;;;18.63;11.27;;;10.20;76.80;;;;;;4978135;28;20045;-81
2023/03/03 07:16:45;;;;;;;18.70;10.50;;;10.30;76.80;;;;;;4984121;28;20007;-82
2023/03/03 07:22:41;;;;;;;20.90;11.40;;;10.20;76.80;;;;;;4983866;28;20026;-81
2023/03/03 07:25:37;;;;;;;18.25;10.90;;;10.20;76.90;;;;;;4984148;28;20034;-82
2023/03/03 07:32:13;;;;;;;18.65;10.80;;;10.20;77.00;;;;;;5001093;28;20091;-81
2023/03/03 07:35:18;;;;;;;19.60;10.70;;;10.10;76.90;;;;;;4999320;28;20007;-81
2023/03/03 07:37:44;;;;;;;19.95;11.68;;;10.30;76.90;;;;;;4983811;28;20014;-82
2023/03/03 07:40:35;;;;;;;18.33;10.82;;;10.20;76.80;;;;;;4999912;28;20037;-81
2023/03/03 07:43:33;;;;;;;21.30;11.77;;;10.20;76.80;;;;;;4983408;28;20047;-82
2023/03/03 07:46:24;;;;;;;20.58;11.60;;;10.20;76.80;;;;;;4982337;28;20087;-81
2023/03/03 07:49:10;;;;;;;19.73;11.00;;;10.30;76.80;;;;;;4983962;28;20039;-81
2023/03/03 07:51:42;;;;;;;19.05;10.85;;;10.20;76.80;;;;;;4999887;28;20058;-81
2023/03/03 07:54:57;;;;;;;18.75;10.63;;;10.30;76.90;;;;;;4983497;28;20011;-81
2023/03/03 08:01:57;;;;;;;17.65;10.13;;;10.20;76.80;;;;;;4999238;28;20033;-85
2023/03/03 08:04:51;;;;;;;17.63;10.55;;;10.10;76.70;;;;;;4985673;28;20042;-82
2023/03/03 08:07:58;;;;;;;18.38;10.82;;;10.40;76.90;;;;;;4985554;28;20015;-82
2023/03/03 08:13:52;;;;;;;17.83;10.25;;;10.20;76.80;;;;;;4999999;28;20037;-82
2023/03/03 08:19:43;;;;;;;19.55;11.05;;;10.10;76.70;;;;;;5000550;28;20042;-81
2023/03/03 08:25:32;;;;;;;17.30;10.02;;;10.10;76.70;;;;;;4999945;28;20018;-82
2023/03/03 08:28:18;;;;;;;19.15;11.23;;;10.20;76.90;;;;;;5024985;23;20057;-79
2023/03/03 08:30:44;;;;;;;18.80;11.02;;;10.20;76.80;;;;;;4997597;28;20022;-80
2023/03/03 08:33:10;;;;;;;20.20;11.80;;;10.20;76.90;;;;;;4980764;28;20041;-79
2023/03/03 08:35:35;;;;;;;19.20;11.20;;;10.10;76.80;;;;;;4997696;28;20034;-80
2023/03/03 08:38:02;;;;;;;20.02;11.85;;;10.20;76.90;;;;;;4991667;28;20117;-80
2023/03/03 08:40:27;;;;;;;18.80;11.25;;;10.30;76.90;;;;;;4978172;28;20031;-79
2023/03/03 08:42:53;;;;;;;20.05;11.70;;;10.20;76.90;;;;;;4973581;28;20052;-79
2023/03/03 08:45:19;;;;;;;19.35;10.77;;;10.20;76.90;;;;;;4976063;28;20023;-80
2023/03/03 08:47:44;;;;;;;20.10;11.82;;;10.20;76.90;;;;;;4978302;28;20095;-79
2023/03/03 08:50:11;;;;;;;18.10;10.68;;;10.20;76.80;;;;;;4975776;28;20085;-79
2023/03/03 08:52:36;;;;;;;20.48;11.48;;;10.20;76.90;;;;;;4977514;28;20516;-80
2023/03/03 08:55:03;;;;;;;18.90;10.63;;;10.20;76.90;;;;;;4976914;28;20074;-79
2023/03/03 08:57:28;;;;;;;20.25;11.30;;;10.30;76.90;;;;;;4975721;28;20078;-79
2023/03/03 08:59:54;;;;;;;19.55;10.88;;;10.20;76.90;;;;;;4977542;28;20025;-80
2023/03/03 09:02:19;;;;;;;19.65;11.10;;;10.20;76.90;;;;;;4976641;28;20062;-80
2023/03/03 09:04:45;;;;;;;18.52;10.23;;;10.30;76.90;;;;;;4974582;28;20022;-80
2023/03/03 09:07:10;;;;;;;20.10;11.20;;;10.20;76.90;;;;;;4974949;28;20027;-79
2023/03/03 09:09:39;;;;;;;18.45;11.02;;;10.30;76.90;;;;;;4974809;28;20503;-79
2023/03/03 09:12:14;;;;;;;19.98;11.23;;;10.20;76.80;;;;;;4975623;28;20035;-79
2023/03/03 09:14:40;;;;;;;18.92;10.93;;;10.30;76.90;;;;;;4974619;28;20027;-79
2023/03/03 09:17:27;;;;;;;21.05;11.70;;;10.20;76.80;;;;;;4976005;28;20041;-79
2023/03/03 09:19:59;;;;;;;20.80;11.18;;;10.30;76.90;;;;;;4975616;28;20045;-79
2023/03/03 09:22:26;;;;;;;19.67;10.85;;;10.30;76.90;;;;;;4973913;28;20031;-78
2023/03/03 09:24:58;;;;;;;18.35;10.77;;;10.30;77.00;;;;;;4973540;28;20027;-78
2023/03/03 09:27:35;;;;;;;19.05;10.85;;;10.30;76.90;;;;;;4972367;28;20085;-79
2023/03/03 09:30:30;;;;;;;19.88;10.60;;;10.20;76.80;;;;;;4974043;28;20031;-78
2023/03/03 09:32:57;;;;;;;19.25;10.93;;;10.30;76.90;;;;;;4966674;28;20046;-79
2023/03/03 09:35:37;;;;;;;18.85;10.57;;;10.30;76.90;;;;;;4973378;28;20064;-79
2023/03/03 09:38:25;;;;;;;18.67;10.17;;;10.30;76.90;;;;;;4973512;28;20050;-79
2023/03/03 09:41:27;;;;;;;19.85;11.07;;;10.20;76.90;;;;;;4973848;28;20445;-79
2023/03/03 09:44:05;;;;;;;19.55;10.85;;;10.30;77.00;;;;;;4973430;28;20434;-77
2023/03/03 09:46:45;;;;;;;21.25;11.85;;;10.20;76.90;;;;;;4973241;28;20030;-79
2023/03/03 09:49:31;;;;;;;18.13;11.00;;;10.30;77.00;;;;;;4974491;28;20029;-79
2023/03/03 09:52:23;;;;;;;21.25;11.90;;;10.20;76.90;;;;;;4974384;28;20089;-78
2023/03/03 09:55:12;;;;;;;17.27;10.55;;;10.30;76.90;;;;;;4972553;28;20058;-79
2023/03/03 09:58:04;;;;;;;17.63;10.30;;;10.30;76.90;;;;;;4972111;28;20023;-79
2023/03/03 10:00:54;;;;;;;19.10;10.75;;;10.30;76.90;;;;;;4973454;28;20046;-79
2023/03/03 10:03:32;;;;;;;18.33;10.20;;;10.30;76.90;;;;;;4973018;28;20031;-79
2023/03/03 10:06:11;;;;;;;19.13;11.00;;;10.20;76.90;;;;;;4971714;28;20063;-79
2023/03/03 10:08:42;;;;;;;18.75;10.93;;;10.30;76.90;;;;;;4971999;28;20027;-78
2023/03/03 10:11:45;;;;;;;18.55;10.55;;;10.30;76.90;;;;;;4972285;28;20023;-79
2023/03/03 10:14:25;;;;;;;19.45;11.05;;;10.30;76.90;;;;;;4973065;28;20513;-79
2023/03/03 10:17:12;;;;;;;17.70;10.35;;;10.30;76.90;;;;;;4972424;28;20031;-79
2023/03/03 10:19:45;;;;;;;18.08;9.65;;;10.30;76.90;;;;;;4973021;28;20030;-79
2023/03/03 10:22:29;;;;;;;19.58;11.15;;;10.30;76.90;;;;;;4971589;28;20027;-78
2023/03/03 10:25:07;;;;;;;18.17;10.25;;;10.30;76.90;;;;;;4973407;28;20378;-79
2023/03/03 10:27:45;;;;;;;17.55;10.45;;;10.30;76.90;;;;;;4976689;28;20413;-79
2023/03/03 10:30:23;;;;;;;18.75;10.85;;;10.30;76.80;;;;;;4975774;28;20023;-79
2023/03/03 10:32:56;;;;;;;20.38;10.90;;;10.30;76.90;;;;;;4975928;28;20031;-79
2023/03/03 10:35:44;;;;;;;20.30;11.18;;;10.30;76.80;;;;;;4959399;28;20113;-79
2023/03/03 10:38:37;;;;;;;18.80;10.70;;;10.30;76.90;;;;;;4983760;28;20038;-79
2023/03/03 10:41:12;;;;;;;21.48;11.88;;;10.30;76.90;;;;;;4965960;28;20118;-80
2023/03/03 10:43:55;;;;;;;19.25;10.88;;;10.30;76.90;;;;;;4983114;28;20023;-79
2023/03/03 10:46:50;;;;;;;18.77;10.57;;;10.30;76.80;;;;;;4982778;28;20027;-80
2023/03/03 10:49:35;;;;;;;17.50;10.32;;;10.30;76.90;;;;;;4982227;28;20592;-79
2023/03/03 10:52:38;;;;;;;18.88;10.65;;;10.30;76.80;;;;;;4980961;28;20460;-79
2023/03/03 10:55:26;;;;;;;19.75;10.90;;;10.30;76.80;;;;;;4980735;28;20490;-80
2023/03/03 10:58:05;;;;;;;18.10;10.27;;;10.30;77.30;;;;;;4980657;28;20089;-80
2023/03/03 11:01:09;;;;;;;19.42;10.75;;;10.30;76.80;;;;;;4981678;28;20035;-80
2023/03/03 11:03:52;;;;;;;19.35;11.25;;;10.30;76.90;;;;;;4974350;28;20078;-79
2023/03/03 11:06:25;;;;;;;20.50;11.57;;;10.20;76.80;;;;;;4979572;28;20023;-80
2023/03/03 11:09:00;;;;;;;19.83;10.98;;;10.30;76.80;;;;;;4980724;28;20018;-79
2023/03/03 11:11:49;;;;;;;18.92;11.07;;;10.30;76.80;;;;;;4962670;28;20054;-79
2023/03/03 11:14:25;;;;;;;19.92;11.35;;;10.30;76.80;;;;;;4980234;28;20509;-80
2023/03/03 11:17:18;;;;;;;18.27;10.35;;;10.30;76.80;;;;;;4980174;28;20049;-79
2023/03/03 11:19:57;;;;;;;17.55;10.43;;;10.30;76.80;;;;;;4980416;28;20102;-79
2023/03/03 11:22:30;;;;;;;19.08;10.82;;;10.30;76.70;;;;;;4978114;28;20374;-80
2023/03/03 11:24:58;;;;;;;18.20;10.80;;;10.30;76.70;;;;;;4979239;28;20610;-80
2023/03/03 11:27:37;;;;;;;18.10;10.32;;;10.30;76.70;;;;;;4977584;28;20037;-79
2023/03/03 11:30:34;;;;;;;17.52;10.30;;;10.30;77.20;;;;;;4982783;28;20033;-78
2023/03/03 11:33:11;;;;;;;20.05;11.55;;;10.30;76.60;;;;;;4978407;28;20030;-79
2023/03/03 11:36:01;;;;;;;17.80;10.43;;;10.30;76.60;;;;;;4980136;28;20121;-79
2023/03/03 11:38:41;;;;;;;19.60;10.50;;;10.40;76.60;;;;;;4981710;28;20030;-79
2023/03/03 11:41:34;;;;;;;18.23;10.13;;;10.40;76.60;;;;;;4981442;28;20030;-79
2023/03/03 11:44:15;;;;;;;17.48;10.40;;;10.40;76.40;;;;;;4979232;28;20421;-79
2023/03/03 11:46:50;;;;;;;20.95;11.32;;;10.40;76.40;;;;;;4963948;28;20042;-79
2023/03/03 11:49:31;;;;;;;19.48;11.20;;;10.40;76.50;;;;;;4980459;28;20022;-81
2023/03/03 11:52:11;;;;;;;19.83;11.02;;;10.30;76.40;;;;;;4970719;28;20029;-77
2023/03/03 11:54:51;;;;;;;17.23;9.55;;;10.40;76.50;;;;;;4968985;28;20027;-77
2023/03/03 11:57:22;;;;;;;18.95;10.38;;;10.40;76.50;;;;;;4967402;28;20031;-77
2023/03/03 12:00:13;;;;;;;18.15;10.00;;;10.40;77.00;;;;;;4977874;28;20078;-78
2023/03/03 12:02:44;;;;;;;;;;;10.40;76.60;;;;;;4984221;28;20029;-77
2023/03/03 12:05:44;;;;;;;18.98;10.02;;;10.30;76.50;;;;;;4970777;28;19914;-76
2023/03/03 12:08:28;;;;;;;17.33;10.23;;;10.40;76.60;;;;;;4985807;28;20406;-77
2023/03/03 12:11:14;;;;;;;18.20;10.10;;;10.40;76.60;;;;;;4986339;28;20034;-78
2023/03/03 12:13:52;;;;;;;18.15;10.43;;;10.40;76.50;;;;;;4986988;28;20404;-78
2023/03/03 12:16:44;;;;;;;17.90;10.07;;;10.40;76.50;;;;;;4987155;28;20400;-77
2023/03/03 12:19:24;;;;;;;17.08;9.68;;;10.40;76.50;;;;;;4970770;28;20460;-77
2023/03/03 12:22:05;;;;;;;18.10;10.03;;;10.40;76.50;;;;;;4970578;28;20512;-79
2023/03/03 12:25:05;;;;;;;19.53;10.83;;;10.40;76.50;;;;;;4970375;28;20273;-77
2023/03/03 12:27:56;;;;;;;20.48;11.38;;;10.40;76.60;;;;;;4961470;28;20042;-77
2023/03/03 12:30:53;;;;;;;19.33;10.73;;;10.40;76.60;;;;;;4987846;28;20137;-78
2023/03/03 12:33:50;;;;;;;18.35;10.55;;;10.40;76.50;;;;;;4970748;28;20030;-78
2023/03/03 12:37:04;;;;;;;18.15;10.18;;;10.40;76.60;;;;;;4986367;28;20030;-77
2023/03/03 12:39:55;;;;;;;17.75;9.98;;;10.40;76.50;;;;;;4961094;28;20092;-78
2023/03/03 12:42:36;;;;;;;16.90;9.98;;;10.40;76.50;;;;;;4969497;28;20038;-77
2023/03/03 12:45:22;;;;;;;;;;;10.40;76.60;;;;;;4970732;28;20033;-77
2023/03/03 12:47:58;;;;;;;16.83;9.50;;;10.40;76.50;;;;;;4987101;28;19910;-77
2023/03/03 12:50:37;;;;;;;18.30;10.38;;;10.40;76.60;;;;;;4988237;28;20029;-77
2023/03/03 12:53:35;;;;;;;17.25;9.65;;;10.40;76.50;;;;;;4970163;28;20030;-77
2023/03/03 12:56:06;;;;;;;18.95;9.43;;;10.40;76.60;;;;;;4969674;28;20034;-77
2023/03/03 12:58:55;;;;;;;18.48;9.50;;;10.40;76.60;;;;;;4969793;28;20030;-77
2023/03/03 13:01:45;;;;;;;17.20;9.75;;;10.40;76.60;;;;;;4969801;28;20104;-78
2023/03/03 13:04:28;;;;;;;16.77;9.20;;;10.40;76.60;;;;;;4987371;28;20038;-77
2023/03/03 13:07:02;;;;;;;16.40;9.05;;;10.40;76.60;;;;;;4969922;28;20413;-77
2023/03/03 13:09:37;;;;;;;16.02;9.20;;;10.40;76.60;;;;;;4969313;28;20109;-77
2023/03/03 13:12:24;;;;;;;15.98;8.85;;;10.40;76.50;;;;;;4987451;28;20029;-78
2023/03/03 13:14:56;;;;;;;17.45;9.70;;;10.40;76.50;;;;;;4987336;28;20638;-77
2023/03/03 13:17:46;;;;;;;17.88;9.93;;;10.40;76.60;;;;;;4987225;28;20041;-78
2023/03/03 13:20:49;;;;;;;16.42;9.68;;;10.40;76.50;;;;;;4986985;28;20027;-78
2023/03/03 13:23:33;;;;;;;16.33;9.27;;;10.40;76.60;;;;;;4985236;28;20041;-77
2023/03/03 13:26:21;;;;;;;16.90;9.60;;;10.50;76.60;;;;;;4969370;28;20121;-79
2023/03/03 13:28:58;;;;;;;16.40;9.43;;;10.40;76.50;;;;;;4986711;28;20113;-77
2023/03/03 13:31:32;;;;;;;16.15;9.15;;;10.50;76.40;;;;;;4969101;28;20034;-78
2023/03/03 13:33:59;;;;;;;16.27;9.45;;;10.50;76.50;;;;;;4986177;28;20038;-77
2023/03/03 13:36:41;;;;;;;16.73;9.35;;;10.40;76.50;;;;;;4969038;28;20117;-77
2023/03/03 13:39:32;;;;;;;14.90;8.77;;;10.50;76.50;;;;;;4986590;28;20780;-77
2023/03/03 13:42:13;;;;;;;15.73;8.80;;;10.50;76.40;;;;;;4986266;28;20062;-77
2023/03/03 13:44:42;;;;;;;16.30;9.02;;;10.40;76.50;;;;;;4986385;28;20064;-80
2023/03/03 13:47:13;;;;;;;16.85;9.73;;;10.40;76.90;;;;;;4968688;28;20405;-77
2023/03/03 13:49:52;;;;;;;16.65;9.45;;;10.40;76.40;;;;;;4968868;28;20046;-77
2023/03/03 13:52:22;;;;;;;16.02;9.48;;;10.40;76.40;;;;;;4985937;28;20129;-78
2023/03/03 13:55:12;;;;;;;13.80;8.02;;;10.40;76.50;;;;;;4968248;28;20033;-77
2023/03/03 13:58:18;;;;;;;15.82;9.10;;;10.40;76.40;;;;;;4986002;28;20137;-77
2023/03/03 14:00:59;;;;;;;16.50;8.07;;;10.40;76.40;;;;;;4978668;28;20034;-76